Time;durP1;ratioP1;P1;durP2;ratioP2;P2;SDS_P1;SDS_P2;PMS_P1;PMS_P2;Temp;Humidity;BMP_temperature;BMP_pressure;BME280_temperature;BME280_humidity;BME280_pressure;Samples;Min_cycle;Max_cycle;Signal;HPM_P1;HPM_P2
2022/02/22 00:01:12;;;;;;;1.90;1.15;;;;;;;6.96;61.82;98815.56;6156319;22;101104;-72
2022/02/22 00:03:38;;;;;;;3.55;1.55;;;;;;;6.96;61.60;98815.56;6132286;22;96783;-72
2022/02/22 00:06:04;;;;;;;2.45;1.17;;;;;;;6.91;61.43;98798.41;6131886;22;97254;-72
2022/02/22 00:08:30;;;;;;;2.70;1.42;;;;;;;7.02;61.60;98824.91;6132525;22;101307;-72
2022/02/22 00:10:56;;;;;;;2.57;1.27;;;;;;;6.88;61.66;98816.81;6106066;22;100799;-72
2022/02/22 00:13:23;;;;;;;2.60;1.33;;;;;;;6.94;62.36;98837.41;6132768;22;97110;-72
2022/02/22 00:15:49;;;;;;;3.80;1.58;;;;;;;6.89;62.34;98848.03;6132252;22;97121;-74
2022/02/22 00:18:14;;;;;;;3.07;1.40;;;;;;;6.92;62.65;98863.59;6132081;22;101831;-72
2022/02/22 00:20:41;;;;;;;2.30;1.17;;;;;;;6.89;63.34;98847.19;6131451;22;101163;-72
2022/02/22 00:23:07;;;;;;;1.48;1.30;;;;;;;6.97;63.81;98866.81;6157095;22;96917;-72
2022/02/22 00:25:33;;;;;;;2.00;1.30;;;;;;;6.91;64.62;98887.13;6158681;22;96626;-72
2022/02/22 00:27:59;;;;;;;1.75;1.08;;;;;;;6.86;64.45;98889.91;6158049;22;97623;-72
2022/02/22 00:30:24;;;;;;;1.13;0.90;;;;;;;6.75;64.15;98886.91;6158459;22;97282;-72
2022/02/22 00:32:52;;;;;;;1.05;0.70;;;;;;;6.82;64.27;98900.53;6133963;22;96941;-74
2022/02/22 00:35:18;;;;;;;1.60;0.70;;;;;;;6.79;64.30;98898.91;6133951;22;96887;-72
2022/02/22 00:37:43;;;;;;;1.35;0.73;;;;;;;6.76;63.55;98910.31;6159091;22;97887;-72
2022/02/22 00:40:10;;;;;;;1.80;0.90;;;;;;;6.72;63.80;98913.97;6132624;22;101722;-72
2022/02/22 00:42:36;;;;;;;2.10;0.73;;;;;;;6.62;63.41;98915.22;6109550;22;96490;-72
2022/02/22 00:45:02;;;;;;;1.40;0.70;;;;;;;6.58;63.27;98922.34;6133433;22;97137;-72
2022/02/22 00:47:27;;;;;;;0.67;0.67;;;;;;;6.51;63.21;98927.84;6134025;22;97448;-72
2022/02/22 00:49:53;;;;;;;2.43;0.80;;;;;;;6.49;63.45;98934.91;6131859;22;101489;-75
2022/02/22 00:52:19;;;;;;;1.70;0.80;;;;;;;6.55;63.07;98938.09;6133911;22;96439;-72
2022/02/22 00:54:45;;;;;;;2.00;0.77;;;;;;;6.40;62.83;98924.81;6158626;22;96634;-71
2022/02/22 00:57:11;;;;;;;1.67;0.80;;;;;;;6.48;62.85;98939.22;6157978;22;98311;-72
2022/02/22 00:59:36;;;;;;;1.50;0.73;;;;;;;6.55;62.54;98956.34;6157741;22;97481;-71
2022/02/22 01:02:02;;;;;;;1.60;0.80;;;;;;;6.57;62.66;98954.53;6108704;22;96923;-71
2022/02/22 01:04:27;;;;;;;1.83;0.97;;;;;;;6.58;62.52;98961.44;6108575;22;96938;-72
2022/02/22 01:06:53;;;;;;;1.83;0.98;;;;;;;6.61;62.28;98970.91;6158211;22;97863;-73
2022/02/22 01:09:18;;;;;;;4.50;1.17;;;;;;;6.57;61.88;98969.31;6108300;22;101338;-71
2022/02/22 01:11:44;;;;;;;2.70;1.20;;;;;;;6.59;62.09;98980.53;6133771;22;96849;-71
2022/02/22 01:14:10;;;;;;;2.83;1.00;;;;;;;6.56;62.43;98997.16;6158448;22;97270;-72
2022/02/22 01:16:36;;;;;;;1.93;0.90;;;;;;;6.53;62.21;98989.44;6132131;22;101678;-71
2022/02/22 01:19:02;;;;;;;1.97;0.90;;;;;;;6.62;62.31;99003.03;6106127;22;101265;-72
2022/02/22 01:21:28;;;;;;;1.98;0.90;;;;;;;6.66;62.52;99004.59;6131865;22;96893;-71
2022/02/22 01:23:54;;;;;;;3.20;0.90;;;;;;;6.64;61.84;99009.06;6134041;22;96899;-74
2022/02/22 01:26:20;;;;;;;3.63;1.33;;;;;;;6.65;62.00;99019.41;6133185;22;98335;-71
2022/02/22 01:28:45;;;;;;;2.67;1.20;;;;;;;6.63;61.81;99026.44;6133398;22;101163;-71
2022/02/22 01:31:11;;;;;;;4.88;2.10;;;;;;;6.54;61.90;99030.28;6131664;22;96997;-71
2022/02/22 01:33:37;;;;;;;3.77;1.33;;;;;;;6.37;62.16;99014.41;6159376;22;96818;-71
2022/02/22 01:36:02;;;;;;;2.87;1.40;;;;;;;6.48;61.96;99034.84;6132249;22;100471;-71
2022/02/22 01:38:28;;;;;;;5.63;1.63;;;;;;;6.51;62.32;99037.34;6133280;22;101458;-71
2022/02/22 01:40:56;;;;;;;4.10;1.40;;;;;;;6.52;61.99;99050.34;6133170;22;96647;-71
2022/02/22 01:43:22;;;;;;;3.50;1.60;;;;;;;6.46;62.05;99047.97;6133978;22;96590;-72
2022/02/22 01:45:48;;;;;;;6.20;1.60;;;;;;;6.45;62.09;99048.84;6132936;22;101044;-71
2022/02/22 01:48:14;;;;;;;5.13;1.60;;;;;;;6.39;62.68;99058.66;6132119;22;98315;-71
2022/02/22 01:50:40;;;;;;;5.13;1.60;;;;;;;6.35;62.71;99056.16;6158597;22;96581;-71
2022/02/22 01:53:05;;;;;;;5.00;2.00;;;;;;;6.30;63.22;99060.69;6133398;22;96816;-71
2022/02/22 01:55:34;;;;;;;5.17;1.77;;;;;;;6.30;63.23;99060.69;6132750;22;101302;-71
2022/02/22 01:58:00;;;;;;;3.60;1.60;;;;;;;6.30;63.17;99063.28;6133335;22;101418;-72
2022/02/22 02:00:27;;;;;;;4.30;1.90;;;;;;;6.32;63.14;99064.09;6132788;22;97172;-71
2022/02/22 02:02:55;;;;;;;4.37;1.60;;;;;;;6.32;63.46;99069.31;6134003;22;96941;-71
2022/02/22 02:05:22;;;;;;;5.53;1.77;;;;;;;6.22;63.56;99043.63;6156856;22;101191;-71
2022/02/22 02:07:48;;;;;;;5.70;1.67;;;;;;;6.36;63.67;99077.88;6133583;22;97235;-72
2022/02/22 02:10:13;;;;;;;7.57;1.63;;;;;;;6.34;63.18;99074.44;6157686;22;97105;-71
2022/02/22 02:12:40;;;;;;;4.00;1.40;;;;;;;6.22;63.41;99056.66;6133542;22;96871;-71
2022/02/22 02:15:06;;;;;;;4.63;1.80;;;;;;;6.27;63.08;99073.00;6131557;22;101274;-72
2022/02/22 02:17:35;;;;;;;6.23;1.80;;;;;;;6.31;63.08;99088.47;6133077;22;99052;-71
2022/02/22 02:20:06;;;;;;;4.90;1.77;;;;;;;6.22;63.27;99069.69;6132037;22;96736;-74
2022/02/22 02:22:31;;;;;;;6.00;1.90;;;;;;;6.30;63.32;99086.75;6186128;22;96564;-73
2022/02/22 02:24:57;;;;;;;5.87;1.87;;;;;;;6.31;63.00;99090.19;6157723;22;98056;-71
2022/02/22 02:27:23;;;;;;;3.20;1.57;;;;;;;6.37;63.16;99096.94;6132866;22;101005;-71
2022/02/22 02:29:48;;;;;;;5.37;1.77;;;;;;;6.34;63.19;99097.91;6108299;22;97055;-71
2022/02/22 02:32:14;;;;;;;4.77;1.63;;;;;;;6.35;63.13;99100.47;6133696;22;97080;-72
2022/02/22 02:34:39;;;;;;;5.17;1.70;;;;;;;6.31;63.28;99103.25;6107594;22;100868;-71
2022/02/22 02:37:05;;;;;;;4.80;1.80;;;;;;;6.30;63.45;99107.59;6132655;22;101276;-72
2022/02/22 02:39:31;;;;;;;4.63;2.00;;;;;;;6.29;63.45;99113.72;6158049;22;97422;-71
2022/02/22 02:41:57;;;;;;;6.27;1.83;;;;;;;6.28;63.38;99112.03;6159144;22;96920;-71
2022/02/22 02:44:23;;;;;;;4.40;1.80;;;;;;;6.39;63.39;99116.00;6157267;22;98427;-72
2022/02/22 02:46:49;;;;;;;6.77;1.93;;;;;;;6.41;63.52;99116.81;6108256;22;100573;-71
2022/02/22 02:49:17;;;;;;;7.17;1.37;;;;;;;6.39;63.01;99118.59;6156877;22;98369;-71
2022/02/22 02:51:44;;;;;;;5.03;1.23;;;;;;;6.38;62.87;99128.19;6133576;22;97144;-71
2022/02/22 02:54:11;;;;;;;7.75;1.63;;;;;;;6.31;63.11;99126.69;6131841;22;99143;-72
2022/02/22 02:56:37;;;;;;;4.27;1.70;;;;;;;6.39;63.14;99136.84;6132618;22;97330;-71
2022/02/22 02:59:07;;;;;;;6.73;1.30;;;;;;;6.27;62.85;99114.69;6133026;22;96641;-74
2022/02/22 03:01:34;;;;;;;2.83;1.40;;;;;;;6.36;63.04;99137.81;6133166;22;96750;-71
2022/02/22 03:04:01;;;;;;;4.23;1.20;;;;;;;6.37;63.41;99133.44;6108267;22;101441;-71
2022/02/22 03:06:27;;;;;;;7.23;1.27;;;;;;;6.29;63.58;99137.19;6157269;22;97991;-71
2022/02/22 03:08:53;;;;;;;6.40;1.53;;;;;;;6.23;63.53;99126.97;6133840;22;97912;-71
2022/02/22 03:11:19;;;;;;;7.77;1.73;;;;;;;6.32;63.58;99141.44;6157975;22;96929;-71
2022/02/22 03:13:45;;;;;;;5.20;1.60;;;;;;;6.31;63.71;99142.34;6158363;22;97391;-71
2022/02/22 03:16:11;;;;;;;5.23;1.60;;;;;;;6.33;64.20;99138.78;6132249;22;97404;-71
2022/02/22 03:18:36;;;;;;;6.63;1.30;;;;;;;6.34;63.39;99143.09;6133097;22;96597;-71
2022/02/22 03:21:03;;;;;;;7.90;2.87;;;;;;;6.33;63.72;99143.13;6132960;22;97265;-71
2022/02/22 03:23:28;;;;;;;6.27;1.60;;;;;;;6.32;63.54;99144.06;6131918;22;101951;-71
2022/02/22 03:25:54;;;;;;;4.63;1.57;;;;;;;6.29;63.47;99154.59;6132385;22;99334;-71
2022/02/22 03:28:20;;;;;;;6.80;1.87;;;;;;;6.32;63.65;99157.09;6132015;22;96962;-71
2022/02/22 03:30:46;;;;;;;4.50;1.37;;;;;;;6.26;63.66;99158.16;6107863;22;97110;-71
2022/02/22 03:33:12;;;;;;;5.17;1.47;;;;;;;6.32;63.41;99162.31;6131865;22;101128;-72
2022/02/22 03:35:39;;;;;;;4.60;1.40;;;;;;;6.35;63.59;99170.00;6132166;22;100769;-71
2022/02/22 03:38:05;;;;;;;7.43;1.80;;;;;;;6.39;63.09;99160.31;6133265;22;96631;-71
2022/02/22 03:40:30;;;;;;;5.97;1.70;;;;;;;6.40;63.27;99162.88;6157368;22;96683;-72
2022/02/22 03:42:56;;;;;;;3.57;1.50;;;;;;;6.28;62.83;99160.69;6157444;22;97430;-71
2022/02/22 03:45:22;;;;;;;8.87;1.77;;;;;;;6.38;63.22;99177.72;6131300;22;100750;-72
2022/02/22 03:47:47;;;;;;;5.83;1.57;;;;;;;6.43;62.57;99177.53;6107506;22;96685;-72
2022/02/22 03:50:14;;;;;;;7.83;1.60;;;;;;;6.34;63.01;99170.88;6132008;22;96474;-72
2022/02/22 03:52:40;;;;;;;5.43;1.53;;;;;;;6.33;62.84;99182.25;6157886;22;98012;-72
2022/02/22 03:55:07;;;;;;;5.03;1.50;;;;;;;6.16;63.21;99148.09;6131906;22;100746;-71
2022/02/22 03:57:34;;;;;;;7.10;1.60;;;;;;;6.40;62.98;99181.13;6106900;22;96545;-72
2022/02/22 04:00:20;;;;;;;2.50;1.30;;;;;;;6.16;63.00;99148.94;6133024;22;96729;-71
2022/02/22 04:02:46;;;;;;;5.63;1.70;;;;;;;6.28;63.01;99187.63;6133011;22;101054;-71
2022/02/22 04:05:12;;;;;;;7.30;1.73;;;;;;;6.27;63.46;99191.13;6132495;22;97796;-72
2022/02/22 04:07:38;;;;;;;4.63;1.50;;;;;;;6.34;63.46;99202.16;6159056;22;97093;-71
2022/02/22 04:10:05;;;;;;;7.03;1.53;;;;;;;6.26;63.58;99199.84;6134032;22;97028;-71
2022/02/22 04:12:31;;;;;;;4.97;1.43;;;;;;;6.33;63.28;99222.19;6158386;22;97408;-71
2022/02/22 04:14:57;;;;;;;7.80;2.37;;;;;;;6.24;63.68;99217.28;6133238;22;100890;-72
2022/02/22 04:17:22;;;;;;;4.33;1.40;;;;;;;6.21;63.88;99232.19;6133748;22;96960;-74
2022/02/22 04:19:50;;;;;;;3.30;1.40;;;;;;;6.25;63.67;99229.41;6158604;22;97129;-74
2022/02/22 04:22:16;;;;;;;10.73;1.80;;;;;;;6.22;63.51;99226.91;6133618;22;101371;-74
2022/02/22 04:24:42;;;;;;;5.80;1.60;;;;;;;6.27;63.91;99243.25;6133103;22;98284;-74
2022/02/22 04:27:08;;;;;;;9.20;1.50;;;;;;;6.21;63.92;99246.06;6134195;22;96515;-74
2022/02/22 04:29:33;;;;;;;6.37;1.80;;;;;;;6.25;63.70;99255.47;6108068;22;96975;-72
2022/02/22 04:32:01;;;;;;;4.87;1.60;;;;;;;6.25;64.00;99260.69;6158455;22;101025;-71
2022/02/22 04:34:27;;;;;;;5.80;1.70;;;;;;;6.29;64.04;99254.47;6132855;22;98012;-71
2022/02/22 04:36:52;;;;;;;7.60;1.80;;;;;;;6.28;63.95;99260.59;6134169;22;97077;-71
2022/02/22 04:39:18;;;;;;;5.97;1.53;;;;;;;6.29;64.28;99274.47;6133346;22;96807;-72
2022/02/22 04:41:43;;;;;;;4.77;1.70;;;;;;;6.31;63.99;99270.03;6133244;22;101013;-71
2022/02/22 04:44:09;;;;;;;4.40;1.70;;;;;;;6.33;64.14;99279.53;6158310;22;101448;-72
2022/02/22 04:46:34;;;;;;;7.10;2.00;;;;;;;6.34;63.97;99290.78;6133241;22;96605;-71
2022/02/22 04:49:00;;;;;;;4.17;1.33;;;;;;;6.27;64.25;99286.69;6134354;22;96679;-71
2022/02/22 04:51:26;;;;;;;5.23;1.20;;;;;;;6.38;64.02;99308.06;6132194;22;101621;-71
2022/02/22 04:53:52;;;;;;;5.37;1.50;;;;;;;6.25;64.19;99276.31;6133640;22;97839;-71
2022/02/22 04:56:17;;;;;;;6.90;1.50;;;;;;;6.31;64.47;99289.16;6132095;22;96683;-71
2022/02/22 04:58:43;;;;;;;3.13;1.47;;;;;;;6.16;64.96;99284.44;6134016;22;96812;-71
2022/02/22 05:01:09;;;;;;;3.77;1.43;;;;;;;6.19;64.66;99294.75;6133088;22;97466;-71
2022/02/22 05:03:35;;;;;;;2.53;1.60;;;;;;;6.20;65.42;99308.66;6132707;22;101509;-71
2022/02/22 05:06:00;;;;;;;4.97;2.00;;;;;;;6.15;65.24;99287.94;6158587;22;97022;-71
2022/02/22 05:08:26;;;;;;;10.27;2.73;;;;;;;6.34;65.29;99322.94;6133059;22;96923;-71
2022/02/22 05:10:53;;;;;;;8.80;2.70;;;;;;;6.31;65.11;99323.06;6158034;22;97950;-74
2022/02/22 05:13:18;;;;;;;16.03;5.37;;;;;;;6.30;65.82;99329.16;6133031;22;100937;-72
2022/02/22 05:15:44;;;;;;;9.37;2.83;;;;;;;6.31;65.85;99340.41;6158248;22;96848;-71
2022/02/22 05:18:09;;;;;;;7.30;2.30;;;;;;;6.24;65.87;99331.97;6159223;22;96785;-71
2022/02/22 05:20:35;;;;;;;7.00;2.30;;;;;;;6.14;66.04;99312.31;6131667;22;101658;-74
2022/02/22 05:23:00;;;;;;;8.97;2.10;;;;;;;6.26;66.14;99335.38;6133402;22;99078;-74
2022/02/22 05:25:26;;;;;;;8.23;2.50;;;;;;;6.21;66.08;99329.44;6157581;22;96940;-71
2022/02/22 05:27:52;;;;;;;9.67;2.07;;;;;;;6.29;65.68;99335.28;6134144;22;97013;-72
2022/02/22 05:30:18;;;;;;;5.63;2.17;;;;;;;6.28;66.12;99338.78;6157428;22;97949;-74
2022/02/22 05:32:44;;;;;;;8.37;1.83;;;;;;;6.27;65.96;99341.44;6133672;22;98303;-72
2022/02/22 05:35:11;;;;;;;7.27;2.23;;;;;;;6.29;65.71;99340.50;6133497;22;96587;-72
2022/02/22 05:37:37;;;;;;;5.73;2.23;;;;;;;6.37;65.52;99341.97;6133749;22;97262;-72
2022/02/22 05:40:05;;;;;;;7.17;2.20;;;;;;;6.37;65.38;99352.41;6107208;22;100613;-72
2022/02/22 05:42:30;;;;;;;4.13;1.60;;;;;;;6.34;65.81;99348.13;6132756;22;97852;-72
2022/02/22 05:44:56;;;;;;;4.87;1.77;;;;;;;6.38;65.47;99357.59;6157779;22;96583;-72
2022/02/22 05:47:22;;;;;;;4.73;1.70;;;;;;;6.22;65.60;99341.56;6108556;22;96850;-72
2022/02/22 05:49:49;;;;;;;3.57;1.60;;;;;;;6.34;65.89;99366.38;6107418;22;100845;-72
2022/02/22 05:52:17;;;;;;;5.73;1.77;;;;;;;6.34;65.43;99358.56;6108607;22;101206;-72
2022/02/22 05:54:43;;;;;;;5.03;1.93;;;;;;;6.29;65.68;99353.53;6132307;22;96642;-73
2022/02/22 05:57:10;;;;;;;4.70;1.67;;;;;;;6.26;65.56;99366.66;6134092;22;96812;-72
2022/02/22 05:59:35;;;;;;;3.13;1.30;;;;;;;6.26;65.48;99373.63;6131669;22;100681;-72
2022/02/22 06:02:01;;;;;;;7.73;1.90;;;;;;;6.26;65.30;99366.66;6133494;22;100352;-71
2022/02/22 06:04:27;;;;;;;4.90;1.70;;;;;;;6.31;65.60;99377.78;6132771;22;96601;-72
2022/02/22 06:06:53;;;;;;;6.20;1.80;;;;;;;6.30;65.40;99376.06;6133684;22;96992;-72
2022/02/22 06:09:18;;;;;;;4.03;1.60;;;;;;;6.30;65.36;99390.84;6132295;22;101399;-72
2022/02/22 06:11:44;;;;;;;5.50;1.50;;;;;;;6.33;65.40;99401.19;6157718;22;97856;-72
2022/02/22 06:14:10;;;;;;;5.63;1.97;;;;;;;6.35;65.57;99408.06;6158969;22;96927;-72
2022/02/22 06:16:36;;;;;;;2.90;1.53;;;;;;;6.35;65.31;99410.66;6132855;22;97275;-72
2022/02/22 06:19:01;;;;;;;5.83;1.63;;;;;;;6.31;65.38;99402.97;6133309;22;97876;-71
2022/02/22 06:21:27;;;;;;;3.30;1.20;;;;;;;6.39;65.16;99416.63;6156855;22;97186;-72
2022/02/22 06:23:52;;;;;;;6.87;1.80;;;;;;;6.41;65.23;99420.06;6133537;22;96917;-72
2022/02/22 06:26:18;;;;;;;6.83;1.93;;;;;;;6.44;65.08;99430.38;6108235;22;97283;-72
2022/02/22 06:28:45;;;;;;;5.07;1.47;;;;;;;6.52;65.34;99425.78;6132369;22;101083;-72
2022/02/22 06:31:11;;;;;;;5.27;1.13;;;;;;;6.49;64.72;99425.88;6131783;22;98335;-72
2022/02/22 06:33:37;;;;;;;5.63;1.50;;;;;;;6.64;64.96;99436.72;6157554;22;97083;-72
2022/02/22 06:36:02;;;;;;;5.23;1.63;;;;;;;6.74;64.59;99435.53;6132709;22;97056;-72
2022/02/22 06:38:28;;;;;;;4.07;2.13;;;;;;;6.67;64.45;99434.88;6156897;22;97911;-72
2022/02/22 06:40:53;;;;;;;3.80;2.03;;;;;;;6.55;64.37;99427.44;6156619;22;97392;-72
2022/02/22 06:43:19;;;;;;;3.13;1.10;;;;;;;6.67;64.41;99453.13;6132055;22;97090;-72
2022/02/22 06:45:45;;;;;;;5.87;1.67;;;;;;;6.51;64.30;99433.63;6130629;22;97444;-72
2022/02/22 06:48:13;;;;;;;4.40;1.63;;;;;;;6.68;64.61;99464.41;6155921;22;97894;-72
2022/02/22 06:50:38;;;;;;;7.57;1.97;;;;;;;6.67;64.81;99460.97;6131457;22;101037;-72
2022/02/22 06:53:04;;;;;;;4.80;1.60;;;;;;;6.70;64.49;99463.47;6157172;22;96490;-73
2022/02/22 06:55:30;;;;;;;6.00;2.13;;;;;;;6.69;64.47;99461.78;6130343;22;96832;-73
2022/02/22 06:58:07;;;;;;;4.30;1.53;;;;;;;6.76;64.62;99471.09;6131936;22;101393;-73
2022/02/22 07:00:34;;;;;;;5.93;1.60;;;;;;;6.83;64.54;99473.50;6156402;22;100930;-73
2022/02/22 07:02:59;;;;;;;8.10;2.23;;;;;;;6.82;64.22;99454.38;6131738;22;96854;-73
2022/02/22 07:05:25;;;;;;;7.67;2.03;;;;;;;6.99;64.08;99475.56;6130742;22;97310;-75
2022/02/22 07:07:51;;;;;;;7.30;2.10;;;;;;;7.25;63.91;99476.47;6156311;22;97363;-73
2022/02/22 07:10:17;;;;;;;4.83;1.90;;;;;;;7.38;63.73;99477.72;6155289;22;97433;-73
2022/02/22 07:12:43;;;;;;;8.23;2.23;;;;;;;7.34;63.86;99477.91;6155842;22;96682;-73
2022/02/22 07:15:09;;;;;;;4.67;1.50;;;;;;;7.29;63.59;99482.44;6131466;22;97013;-73
2022/02/22 07:17:53;;;;;;;8.60;2.07;;;;;;;7.25;63.65;99471.25;6130145;22;97471;-73
2022/02/22 07:20:19;;;;;;;4.80;1.90;;;;;;;7.39;63.23;99487.28;6105604;22;101230;-72
2022/02/22 07:22:46;;;;;;;4.83;1.73;;;;;;;7.43;63.38;99483.66;6155957;22;96696;-72
2022/02/22 07:25:13;;;;;;;3.47;1.40;;;;;;;7.35;63.24;99483.06;6130659;22;97163;-73
2022/02/22 07:27:39;;;;;;;6.65;1.70;;;;;;;7.35;63.13;99495.28;6130095;22;101257;-73
2022/02/22 07:30:06;;;;;;;5.30;2.10;;;;;;;7.47;62.91;99506.13;6130632;22;97585;-73
2022/02/22 07:32:33;;;;;;;7.63;2.20;;;;;;;7.34;62.69;99494.44;6130501;22;96661;-73
2022/02/22 07:34:59;;;;;;;9.93;1.92;;;;;;;7.46;62.53;99506.22;6130703;22;97259;-73
2022/02/22 07:37:24;;;;;;;4.37;1.67;;;;;;;7.82;62.57;99527.56;6155671;22;97802;-75
2022/02/22 07:39:50;;;;;;;2.80;1.50;;;;;;;7.95;61.77;99509.72;6129944;22;101381;-73
2022/02/22 07:42:16;;;;;;;4.57;1.50;;;;;;;8.04;62.10;99539.91;6131194;22;96965;-72
2022/02/22 07:44:42;;;;;;;4.80;1.98;;;;;;;7.92;61.79;99546.41;6130157;22;97213;-73
2022/02/22 07:47:08;;;;;;;3.80;1.47;;;;;;;7.79;62.12;99539.91;6130860;22;98475;-73
2022/02/22 07:49:34;;;;;;;8.15;2.08;;;;;;;7.82;62.56;99558.06;6129282;22;101030;-73
2022/02/22 07:51:59;;;;;;;4.60;1.70;;;;;;;7.63;62.62;99516.94;6183369;22;96531;-73
2022/02/22 07:54:25;;;;;;;3.00;1.73;;;;;;;7.77;62.43;99560.88;6130711;22;97319;-74
2022/02/22 07:56:50;;;;;;;4.35;1.70;;;;;;;7.68;62.78;99563.81;6130377;22;101797;-72
2022/02/22 07:59:16;;;;;;;4.07;1.85;;;;;;;7.62;63.26;99577.91;6131435;22;98218;-77
2022/02/22 08:01:42;;;;;;;4.40;1.73;;;;;;;7.54;63.17;99566.88;6131085;22;97300;-72
2022/02/22 08:04:07;;;;;;;4.75;1.98;;;;;;;7.68;62.93;99580.31;6133389;22;96658;-73
2022/02/22 08:06:33;;;;;;;3.33;1.27;;;;;;;7.65;63.55;99584.78;6131141;22;101946;-73
2022/02/22 08:08:59;;;;;;;2.87;1.23;;;;;;;7.63;63.28;99584.00;6132284;22;101125;-73
2022/02/22 08:11:26;;;;;;;3.85;1.65;;;;;;;7.57;63.07;99579.84;6184167;22;96554;-72
2022/02/22 08:13:52;;;;;;;5.30;1.55;;;;;;;7.71;63.14;99585.44;6157777;22;96703;-72
2022/02/22 08:16:18;;;;;;;5.47;2.15;;;;;;;7.62;63.25;99590.97;6131455;22;97371;-72
2022/02/22 08:18:43;;;;;;;3.85;1.60;;;;;;;7.67;63.31;99590.81;6131374;22;101388;-72
2022/02/22 08:21:09;;;;;;;5.40;1.75;;;;;;;7.62;63.35;99611.00;6132368;22;96615;-72
2022/02/22 08:23:35;;;;;;;5.22;1.48;;;;;;;7.58;63.95;99620.69;6129051;22;97200;-72
2022/02/22 08:26:04;;;;;;;4.30;1.40;;;;;;;7.51;65.25;99621.81;6128958;22;101420;-73
2022/02/22 08:28:30;;;;;;;3.80;1.20;;;;;;;7.48;65.86;99614.09;6129220;22;97914;-73
2022/02/22 08:30:56;;;;;;;4.22;2.30;;;;;;;7.43;65.79;99616.84;6129805;22;96987;-73
2022/02/22 08:33:21;;;;;;;5.18;2.05;;;;;;;7.44;66.76;99625.53;6131608;22;96843;-73
2022/02/22 08:35:47;;;;;;;7.43;2.08;;;;;;;7.50;66.29;99635.75;6154090;22;101344;-73
2022/02/22 08:38:13;;;;;;;7.35;2.10;;;;;;;7.42;66.76;99629.97;6105715;22;101489;-73
2022/02/22 08:40:38;;;;;;;8.97;2.23;;;;;;;7.38;66.54;99639.63;6130834;22;96992;-73
2022/02/22 08:43:04;;;;;;;8.10;1.75;;;;;;;7.37;66.38;99648.38;6157431;22;96978;-72
2022/02/22 08:45:29;;;;;;;7.67;1.90;;;;;;;7.27;66.72;99649.53;6156096;22;100941;-75
2022/02/22 08:47:55;;;;;;;5.53;1.98;;;;;;;7.17;66.24;99632.47;6107466;22;101589;-72
2022/02/22 08:50:21;;;;;;;9.00;3.03;;;;;;;7.22;65.71;99662.75;6133111;22;96598;-73
2022/02/22 08:52:47;;;;;;;9.67;2.30;;;;;;;7.11;65.55;99659.63;6132821;22;97487;-74
2022/02/22 08:55:13;;;;;;;12.13;2.70;;;;;;;7.09;65.31;99674.47;6131064;22;101186;-73
2022/02/22 08:57:39;;;;;;;7.90;2.10;;;;;;;7.08;65.45;99670.16;6130329;22;98017;-73
2022/02/22 09:00:10;;;;;;;8.40;2.00;;;;;;;6.95;65.83;99668.78;6131295;22;96633;-73
2022/02/22 09:02:37;;;;;;;11.83;2.60;;;;;;;7.12;66.05;99690.03;6108380;22;96695;-73
2022/02/22 09:05:03;;;;;;;11.10;2.37;;;;;;;6.97;65.75;99678.28;6156174;22;97955;-73
2022/02/22 09:07:29;;;;;;;12.90;2.97;;;;;;;7.19;66.12;99696.78;6131551;22;101054;-84
2022/02/22 09:09:55;;;;;;;15.70;2.63;;;;;;;7.18;66.00;99691.59;6108632;22;96953;-80
2022/02/22 09:12:20;;;;;;;12.17;2.90;;;;;;;7.24;65.67;99707.06;6133748;22;96693;-81
2022/02/22 09:14:46;;;;;;;15.80;4.20;;;;;;;7.19;65.58;99709.00;6107545;22;101337;-80
2022/02/22 09:17:12;;;;;;;12.30;3.17;;;;;;;7.20;65.71;99718.53;6133768;22;101039;-85
2022/02/22 09:19:37;;;;;;;11.03;2.70;;;;;;;7.24;65.14;99714.91;6131910;22;97098;-83
2022/02/22 09:22:03;;;;;;;14.30;3.43;;;;;;;7.27;64.74;99722.66;6158980;22;96691;-86
2022/02/22 09:24:29;;;;;;;13.67;3.53;;;;;;;7.13;64.47;99699.59;6157228;22;100110;-81
2022/02/22 09:26:54;;;;;;;13.93;2.90;;;;;;;7.23;63.76;99723.66;6158057;22;98670;-81
2022/02/22 09:29:20;;;;;;;14.67;2.50;;;;;;;7.21;63.25;99725.44;6107405;22;96830;-81
2022/02/22 09:31:49;;;;;;;13.90;3.10;;;;;;;7.26;63.03;99740.06;6132411;22;97226;-80
2022/02/22 09:34:15;;;;;;;12.55;2.95;;;;;;;7.22;62.28;99735.84;6158288;22;97528;-86
2022/02/22 09:36:41;;;;;;;15.53;3.60;;;;;;;7.14;61.63;99734.38;6134217;22;101410;-85
2022/02/22 09:39:06;;;;;;;8.90;3.07;;;;;;;7.10;61.59;99746.66;6135486;22;96470;-84
2022/02/22 09:41:35;;;;;;;14.20;3.30;;;;;;;7.11;61.63;99756.19;6134428;22;97024;-85
2022/02/22 09:44:01;;;;;;;13.70;2.83;;;;;;;7.00;61.25;99738.22;6108609;22;100929;-85
2022/02/22 09:46:29;;;;;;;14.13;3.03;;;;;;;7.03;60.95;99739.88;6132260;22;97443;-83
2022/02/22 09:48:54;;;;;;;15.40;3.57;;;;;;;6.95;60.23;99731.41;6131154;22;96763;-81
2022/02/22 09:51:20;;;;;;;18.00;3.50;;;;;;;7.00;60.64;99750.41;6133847;22;96885;-90
2022/02/22 09:53:46;;;;;;;9.33;2.73;;;;;;;7.09;60.88;99760.59;6109947;22;101064;-90
2022/02/22 09:56:11;;;;;;;12.27;3.23;;;;;;;7.13;60.27;99764.00;6110001;22;100690;-93
2022/02/22 09:58:37;;;;;;;18.40;4.33;;;;;;;7.20;59.89;99781.19;6109362;22;97074;-89
2022/02/22 10:01:03;;;;;;;12.27;3.00;;;;;;;7.17;58.86;99787.34;6134508;22;96664;-90
2022/02/22 10:03:29;;;;;;;12.07;3.27;;;;;;;7.25;58.60;99779.28;6108682;22;101299;-89
2022/02/22 10:05:59;;;;;;;18.20;3.83;;;;;;;7.29;57.72;99783.50;6108220;22;100372;-90
2022/02/22 10:08:29;;;;;;;17.23;3.63;;;;;;;7.33;58.06;99790.38;6134714;22;97071;-89
2022/02/22 10:11:05;;;;;;;18.27;3.50;;;;;;;7.44;57.41;99795.25;6109505;22;96995;-88
2022/02/22 10:13:31;;;;;;;13.33;3.03;;;;;;;7.44;57.19;99792.66;6133954;22;101258;-89
2022/02/22 10:15:58;;;;;;;16.77;3.43;;;;;;;7.34;56.16;99768.56;6134167;22;101408;-88
2022/02/22 10:18:25;;;;;;;10.80;2.27;;;;;;;7.51;55.76;99803.78;6134501;22;97051;-82
2022/02/22 10:20:51;;;;;;;15.27;3.10;;;;;;;7.45;55.47;99795.22;6107975;22;96604;-90
2022/02/22 10:23:32;;;;;;;16.52;3.65;;;;;;;7.41;55.45;99784.91;6106640;22;101169;-83
2022/02/22 10:25:59;;;;;;;22.67;3.60;;;;;;;7.42;54.92;99792.72;6156715;22;97933;-82
2022/02/22 10:28:25;;;;;;;14.87;3.50;;;;;;;7.50;54.57;99800.31;6158824;22;96549;-81
2022/02/22 10:30:53;;;;;;;13.02;3.42;;;;;;;7.63;53.86;99814.72;6157643;22;96763;-83
2022/02/22 10:33:22;;;;;;;14.15;4.28;;;;;;;7.83;53.25;99808.91;6107951;22;101671;-82
2022/02/22 10:35:53;;;;;;;8.73;2.80;;;;;;;7.96;53.45;99803.28;6131619;22;101195;-79
2022/02/22 10:38:21;;;;;;;14.60;3.40;;;;;;;8.01;52.97;99799.63;6133856;22;96623;-79
2022/02/22 10:41:05;;;;;;;8.02;2.83;;;;;;;8.12;52.36;99813.22;6157138;22;98056;-79
2022/02/22 10:43:38;;;;;;;14.38;3.45;;;;;;;8.13;51.85;99827.97;6152749;22;98031;-79
2022/02/22 10:46:12;;;;;;;15.77;2.90;;;;;;;8.11;51.01;99814.09;6154859;22;98390;-79
2022/02/22 10:48:43;;;;;;;10.25;2.90;;;;;;;8.12;49.60;99834.13;6103716;22;96705;-80
2022/02/22 10:51:14;;;;;;;13.45;3.35;;;;;;;8.28;48.78;99839.69;6129780;22;97356;-79
2022/02/22 10:53:48;;;;;;;12.35;2.50;;;;;;;8.45;48.32;99833.97;6127621;22;101372;-78
2022/02/22 10:56:15;;;;;;;8.85;2.28;;;;;;;8.43;48.33;99830.53;6128739;22;101632;-80
2022/02/22 10:58:43;;;;;;;10.82;2.42;;;;;;;8.47;47.81;99841.78;6128411;22;97352;-79
2022/02/22 11:01:14;;;;;;;9.10;2.90;;;;;;;8.66;47.57;99848.06;6129192;22;96821;-79
2022/02/22 11:03:44;;;;;;;9.90;2.85;;;;;;;8.70;47.88;99846.25;6103878;22;101401;-79
2022/02/22 11:06:14;;;;;;;12.77;4.40;;;;;;;8.74;47.67;99826.91;6102829;22;100994;-76
2022/02/22 11:08:41;;;;;;;15.15;3.58;;;;;;;8.95;47.76;99856.72;6104293;22;96747;-75
2022/02/22 11:11:11;;;;;;;14.95;3.47;;;;;;;8.91;48.00;99849.88;6130066;22;97529;-76
2022/02/22 11:13:37;;;;;;;12.52;3.22;;;;;;;8.68;49.39;99820.09;6128278;22;99563;-76
2022/02/22 11:16:19;;;;;;;15.82;3.08;;;;;;;8.91;49.53;99853.34;6181407;22;98263;-80
2022/02/22 11:18:53;;;;;;;11.57;3.15;;;;;;;8.89;49.10;99867.38;6130106;22;96626;-78
2022/02/22 11:21:24;;;;;;;12.55;2.85;;;;;;;9.02;49.42;99850.38;6156101;22;97197;-75
2022/02/22 11:24:02;;;;;;;17.17;3.83;;;;;;;8.95;48.74;99864.56;6129035;22;101074;-76
2022/02/22 11:26:31;;;;;;;15.40;3.42;;;;;;;8.79;49.00;99838.06;6154927;22;97479;-76
2022/02/22 11:28:59;;;;;;;15.68;3.05;;;;;;;8.78;48.02;99870.34;6129062;22;97074;-85
2022/02/22 11:31:31;;;;;;;13.10;2.92;;;;;;;8.69;48.49;99858.44;6131169;22;97249;-90
2022/02/22 11:34:02;;;;;;;12.85;3.33;;;;;;;8.64;49.67;99860.38;6155369;22;100099;-86